Time;durP1;ratioP1;P1;durP2;ratioP2;P2;SDS_P1;SDS_P2;PMS_P1;PMS_P2;Temp;Humidity;BMP_temperature;BMP_pressure;BME280_temperature;BME280_humidity;BME280_pressure;Samples;Min_cycle;Max_cycle;Signal;HPM_P1;HPM_P2
2022/04/29 00:01:03;;;;;;;48.17;28.05;;;;;;;8.49;61.48;101489.18;2078689;85;33622;-59
2022/04/29 00:04:05;;;;;;;44.45;26.35;;;;;;;8.49;61.31;101486.95;2079202;85;29478;-59
2022/04/29 00:07:09;;;;;;;44.40;25.60;;;;;;;8.49;61.30;101479.84;2078804;85;27935;-58
2022/04/29 00:10:15;;;;;;;40.98;23.80;;;;;;;8.50;61.36;101482.93;2078996;85;29602;-58
2022/04/29 00:13:17;;;;;;;41.00;25.00;;;;;;;8.51;61.44;101479.79;2078891;85;31077;-58
2022/04/29 00:16:19;;;;;;;46.40;25.37;;;;;;;8.50;61.24;101470.91;2079173;85;34098;-58
2022/04/29 00:19:21;;;;;;;45.03;27.70;;;;;;;8.49;61.08;101474.94;2079038;85;30791;-59
2022/04/29 00:22:23;;;;;;;40.50;24.37;;;;;;;8.51;61.12;101474.45;2079228;85;27669;-58
2022/04/29 00:25:25;;;;;;;47.80;27.80;;;;;;;8.51;61.22;101478.45;2079143;85;29888;-58
2022/04/29 00:28:28;;;;;;;49.65;27.98;;;;;;;8.49;61.30;101479.84;2078740;85;32400;-58
2022/04/29 00:31:30;;;;;;;53.70;29.52;;;;;;;8.46;61.26;101478.53;2078647;85;33856;-59
2022/04/29 00:34:32;;;;;;;47.40;29.80;;;;;;;8.43;61.22;101470.58;2079167;85;30004;-64
2022/04/29 00:37:44;;;;;;;46.95;27.85;;;;;;;8.39;61.13;101474.22;2079478;85;27620;-59
2022/04/29 00:40:45;;;;;;;50.92;28.80;;;;;;;8.34;61.09;101477.00;2079164;85;29502;-59
2022/04/29 00:43:47;;;;;;;47.43;27.95;;;;;;;8.27;61.19;101463.81;2079083;85;32394;-59
2022/04/29 00:46:51;;;;;;;51.40;28.45;;;;;;;8.19;61.19;101471.51;2053761;85;34285;-59
2022/04/29 00:49:52;;;;;;;43.17;26.82;;;;;;;8.13;61.15;101472.99;2079017;85;29999;-65
2022/04/29 00:52:59;;;;;;;53.48;29.05;;;;;;;8.03;61.27;101460.29;2078919;85;27698;-58
2022/04/29 00:56:02;;;;;;;48.02;28.77;;;;;;;7.94;61.43;101463.59;2079054;85;28659;-58
2022/04/29 00:59:15;;;;;;;47.67;26.07;;;;;;;7.84;61.48;101467.79;2074575;84;32253;-58
2022/04/29 01:02:16;;;;;;;47.08;27.48;;;;;;;7.76;61.41;101471.04;2073475;85;33722;-58
2022/04/29 01:05:21;;;;;;;45.43;25.72;;;;;;;7.65;61.76;101468.57;2073626;85;30489;-60
2022/04/29 01:08:23;;;;;;;46.80;26.00;;;;;;;7.54;61.73;101465.23;2073774;85;27633;-58
2022/04/29 01:11:27;;;;;;;45.40;25.52;;;;;;;7.44;61.87;101464.52;2073500;85;29956;-58
2022/04/29 01:14:29;;;;;;;40.20;24.87;;;;;;;7.36;62.01;101471.78;2073807;85;31029;-58
2022/04/29 01:17:34;;;;;;;44.27;24.32;;;;;;;7.28;62.14;101461.25;2073504;85;33842;-57
2022/04/29 01:20:37;;;;;;;;;;;;;;;7.18;62.27;101462.30;2076296;85;29819;-58
2022/04/29 01:23:41;;;;;;;34.95;22.17;;;;;;;7.10;62.50;101457.09;2073918;85;27749;-58
2022/04/29 01:26:43;;;;;;;36.40;21.25;;;;;;;7.02;62.56;101454.55;2073823;85;29457;-58
2022/04/29 01:29:47;;;;;;;31.33;21.60;;;;;;;6.95;62.82;101448.45;2073829;85;31858;-58
2022/04/29 01:32:49;;;;;;;32.65;21.02;;;;;;;6.87;62.87;101446.34;2072990;85;32800;-63
2022/04/29 01:35:52;;;;;;;38.50;21.65;;;;;;;6.81;62.95;101439.33;2073576;85;30231;-63
2022/04/29 01:38:54;;;;;;;39.40;21.15;;;;;;;6.77;63.09;101444.73;2073861;85;27717;-63
2022/04/29 01:41:57;;;;;;;35.03;20.15;;;;;;;6.74;63.25;101439.45;2073923;85;28736;-63
2022/04/29 01:44:58;;;;;;;34.88;21.70;;;;;;;6.67;63.28;101441.33;2073954;85;31219;-64
2022/04/29 01:48:00;;;;;;;29.70;19.37;;;;;;;6.63;63.55;101442.27;2073594;85;34160;-63
2022/04/29 01:51:06;;;;;;;34.27;21.20;;;;;;;6.59;63.53;101441.45;2073633;85;30841;-59
2022/04/29 01:54:10;;;;;;;35.17;21.45;;;;;;;6.57;63.76;101441.05;2074034;85;27715;-59
2022/04/29 01:57:10;;;;;;;34.60;21.27;;;;;;;6.54;63.94;101446.84;2073672;85;30070;-59
2022/04/29 02:00:13;;;;;;;30.77;20.62;;;;;;;6.53;64.16;101437.09;2078766;85;31482;-60
2022/04/29 02:03:15;;;;;;;29.32;19.95;;;;;;;6.51;64.24;101439.36;2079145;85;32247;-59
2022/04/29 02:06:18;;;;;;;43.90;21.05;;;;;;;6.50;64.42;101431.81;2078861;85;30492;-59
2022/04/29 02:09:21;;;;;;;32.88;20.48;;;;;;;6.47;64.49;101433.17;2078853;85;27653;-68
2022/04/29 02:12:23;;;;;;;35.80;20.95;;;;;;;6.52;64.67;101446.45;2078746;85;29924;-66
2022/04/29 02:15:26;;;;;;;33.75;19.67;;;;;;;6.51;64.77;101441.56;2079038;85;30994;-59
2022/04/29 02:18:28;;;;;;;33.05;20.00;;;;;;;6.51;64.92;101438.90;2078690;85;33782;-58
2022/04/29 02:21:29;;;;;;;35.13;21.42;;;;;;;6.52;64.95;101443.32;2078762;85;30238;-60
2022/04/29 02:24:34;;;;;;;35.73;20.85;;;;;;;6.55;64.94;101438.39;2079166;85;27676;-60
2022/04/29 02:27:38;;;;;;;38.65;21.52;;;;;;;6.56;65.07;101438.82;2079172;85;29711;-62
2022/04/29 02:30:40;;;;;;;38.25;21.65;;;;;;;6.61;65.21;101444.11;2079107;85;31027;-59
2022/04/29 02:33:42;;;;;;;35.43;20.97;;;;;;;6.65;65.29;101446.70;2079214;85;33500;-60
2022/04/29 02:36:44;;;;;;;35.03;21.60;;;;;;;6.69;65.42;101435.53;2078694;85;30511;-59
2022/04/29 02:39:46;;;;;;;35.58;21.82;;;;;;;6.73;65.60;101435.92;2078899;85;27688;-69
2022/04/29 02:42:48;;;;;;;35.13;20.88;;;;;;;6.75;65.65;101438.55;2078761;85;29164;-63
2022/04/29 02:45:51;;;;;;;35.83;20.88;;;;;;;6.79;65.68;101434.48;2079406;85;32021;-63
2022/04/29 02:48:53;;;;;;;40.20;21.17;;;;;;;6.81;65.62;101434.01;2078903;85;32975;-59
2022/04/29 02:51:55;;;;;;;36.70;21.60;;;;;;;6.84;65.84;101433.09;2078395;85;30823;-69
2022/04/29 02:54:57;;;;;;;33.70;20.35;;;;;;;6.87;65.80;101424.17;2078705;85;28204;-65
2022/04/29 02:57:59;;;;;;;32.25;21.15;;;;;;;6.88;65.92;101429.92;2077815;84;28890;-71
2022/04/29 03:01:02;;;;;;;35.38;21.90;;;;;;;6.89;65.79;101433.02;2073523;85;32290;-64
2022/04/29 03:04:04;;;;;;;42.67;23.22;;;;;;;6.90;65.96;101432.12;2052519;85;33999;-72
2022/04/29 03:07:06;;;;;;;44.20;22.50;;;;;;;6.92;66.00;101430.31;2073848;85;29707;-70
2022/04/29 03:10:08;;;;;;;36.28;21.40;;;;;;;6.91;66.09;101429.41;2073755;85;27680;-70
2022/04/29 03:13:10;;;;;;;33.48;21.40;;;;;;;6.93;65.93;101424.95;2073538;85;29515;-69
2022/04/29 03:16:14;;;;;;;34.13;21.52;;;;;;;6.95;66.05;101426.27;2073514;85;32266;-59
2022/04/29 03:19:17;;;;;;;33.58;20.55;;;;;;;6.96;65.89;101430.66;2073733;85;33978;-61
2022/04/29 03:22:19;;;;;;;35.50;21.73;;;;;;;6.97;65.89;101436.42;2073906;85;30445;-64
2022/04/29 03:25:21;;;;;;;31.02;20.92;;;;;;;6.97;66.08;101429.33;2073877;85;27534;-64
2022/04/29 03:28:23;;;;;;;36.30;20.35;;;;;;;6.97;65.92;101426.66;2073556;85;29524;-65
2022/04/29 03:31:26;;;;;;;34.50;21.15;;;;;;;6.98;66.01;101432.86;2074273;85;31611;-62
2022/04/29 03:34:28;;;;;;;37.48;22.00;;;;;;;6.98;65.88;101432.86;2073763;85;33882;-64
2022/04/29 03:37:30;;;;;;;33.53;21.23;;;;;;;6.98;66.01;101430.19;2073923;85;29395;-61
2022/04/29 03:40:31;;;;;;;40.52;22.90;;;;;;;6.99;66.00;101441.28;2073918;85;27676;-60
2022/04/29 03:43:34;;;;;;;33.70;21.33;;;;;;;6.99;66.11;101435.52;2073253;85;29597;-65
2022/04/29 03:46:36;;;;;;;34.98;19.45;;;;;;;6.99;65.94;101443.51;2073681;85;31317;-63
2022/04/29 03:49:38;;;;;;;34.00;20.50;;;;;;;7.03;66.07;101442.12;2073418;85;34228;-62
2022/04/29 03:52:51;;;;;;;33.28;20.15;;;;;;;7.06;66.12;101440.29;2073920;85;29985;-63
2022/04/29 03:55:53;;;;;;;40.10;20.50;;;;;;;7.11;66.18;101449.09;2073913;85;27649;-60
2022/04/29 03:58:54;;;;;;;33.53;19.62;;;;;;;7.17;66.26;101453.87;2075809;84;29078;-66
2022/04/29 04:01:56;;;;;;;32.88;19.48;;;;;;;7.23;66.35;101445.78;2079199;85;31473;-63
2022/04/29 04:04:58;;;;;;;31.62;18.82;;;;;;;7.29;66.37;101448.32;2078809;85;34207;-63
2022/04/29 04:08:00;;;;;;;34.03;19.23;;;;;;;7.37;66.40;101442.86;2079378;85;30004;-66
2022/04/29 04:11:02;;;;;;;28.27;18.55;;;;;;;7.45;66.41;101445.81;2079305;85;27662;-62
2022/04/29 04:14:04;;;;;;;28.60;18.00;;;;;;;7.55;66.39;101448.33;2078927;85;28620;-61
2022/04/29 04:17:07;;;;;;;30.43;18.00;;;;;;;7.64;66.36;101457.95;2078555;85;31909;-65
2022/04/29 04:20:12;;;;;;;28.05;17.62;;;;;;;7.75;66.39;101455.51;2078848;85;33753;-60
2022/04/29 04:23:14;;;;;;;21.82;13.55;;;;;;;7.87;66.27;101452.16;2078841;85;29812;-59
2022/04/29 04:26:16;;;;;;;32.78;18.23;;;;;;;8.00;66.26;101455.01;2078639;85;27669;-58
2022/04/29 04:29:18;;;;;;;29.55;17.10;;;;;;;8.14;66.22;101457.84;2078884;85;28678;-69
2022/04/29 04:32:21;;;;;;;27.20;16.62;;;;;;;8.28;66.31;101457.09;2078585;85;31975;-62
2022/04/29 04:35:23;;;;;;;34.15;19.10;;;;;;;8.44;66.15;101458.98;2078731;85;34155;-67
2022/04/29 04:38:26;;;;;;;29.87;17.48;;;;;;;8.61;66.20;101458.62;2079374;85;30295;-59
2022/04/29 04:41:28;;;;;;;30.52;18.10;;;;;;;8.79;66.02;101456.00;2078950;85;27720;-64
2022/04/29 04:44:30;;;;;;;30.02;17.73;;;;;;;8.96;65.58;101464.94;2078890;85;29289;-58
2022/04/29 04:47:32;;;;;;;28.10;17.20;;;;;;;9.15;65.27;101465.83;2078808;85;32239;-59
2022/04/29 04:50:34;;;;;;;33.48;18.00;;;;;;;9.33;64.92;101465.84;2079088;85;32553;-58
2022/04/29 04:53:36;;;;;;;25.08;17.57;;;;;;;9.66;65.10;101471.66;2078844;85;30845;-58
2022/04/29 04:56:38;;;;;;;27.73;16.57;;;;;;;10.42;65.03;101475.81;2079078;85;27649;-58
2022/04/29 04:59:41;;;;;;;30.23;16.67;;;;;;;11.10;64.09;101476.81;2078743;84;29352;-60
2022/04/29 05:02:43;;;;;;;26.27;15.10;;;;;;;11.58;63.28;101475.66;2078621;85;32376;-59
2022/04/29 05:05:45;;;;;;;24.85;14.60;;;;;;;12.24;62.75;101478.69;2078650;85;34279;-61
2022/04/29 05:08:47;;;;;;;21.48;12.75;;;;;;;13.00;61.95;101473.02;2054254;85;30204;-59
2022/04/29 05:11:49;;;;;;;14.13;9.90;;;;;;;13.30;60.74;101474.05;2078931;85;27632;-66
2022/04/29 05:14:52;;;;;;;15.28;9.70;;;;;;;13.42;59.07;101476.70;2078571;85;30647;-64
2022/04/29 05:17:55;;;;;;;15.18;9.33;;;;;;;13.46;58.54;101478.33;2078641;85;30756;-59
2022/04/29 05:20:56;;;;;;;16.00;9.25;;;;;;;13.46;57.81;101478.81;2078611;85;33817;-62
2022/04/29 05:23:58;;;;;;;11.83;7.22;;;;;;;13.56;57.93;101480.16;2078673;85;31090;-63
2022/04/29 05:27:01;;;;;;;11.75;6.67;;;;;;;13.80;56.51;101478.70;2078790;85;27699;-61
2022/04/29 05:30:04;;;;;;;11.90;7.33;;;;;;;13.82;55.54;101484.86;2078809;85;29564;-60
2022/04/29 05:33:07;;;;;;;12.90;7.33;;;;;;;13.93;55.80;101482.59;2078792;85;31935;-65
2022/04/29 05:36:12;;;;;;;9.98;7.37;;;;;;;14.40;54.40;101484.03;2078751;85;33595;-65
2022/04/29 05:42:34;;;;;;;12.85;6.95;;;;;;;15.72;52.32;101479.45;2078876;85;27619;-60
2022/04/29 05:45:37;;;;;;;13.38;7.87;;;;;;;15.72;52.32;101479.45;2078456;85;28750;-63
2022/04/29 05:48:39;;;;;;;11.70;6.00;;;;;;;15.89;52.11;101478.09;2078460;85;32395;-60
2022/04/29 05:51:41;;;;;;;10.70;6.60;;;;;;;16.01;50.78;101479.27;2078543;85;34422;-62
2022/04/29 05:54:45;;;;;;;12.88;6.58;;;;;;;16.29;50.85;101480.95;2078833;85;30357;-61
2022/04/29 05:57:49;;;;;;;9.70;6.28;;;;;;;16.72;49.91;101478.55;2079582;85;27718;-63
2022/04/29 06:00:52;;;;;;;9.95;5.62;;;;;;;17.26;49.58;101474.14;2078522;84;28827;-62
2022/04/29 06:03:56;;;;;;;11.18;6.95;;;;;;;17.84;49.13;101477.00;2053742;85;31443;-62
2022/04/29 06:06:58;;;;;;;7.03;5.58;;;;;;;18.30;48.03;101476.47;2078807;85;33086;-61
2022/04/29 06:10:00;;;;;;;7.65;5.45;;;;;;;18.70;46.37;101478.48;2078886;85;29827;-64
2022/04/29 06:13:02;;;;;;;8.78;5.40;;;;;;;18.73;46.08;101476.44;2049676;86;27767;-60
2022/04/29 06:16:06;;;;;;;14.55;5.62;;;;;;;18.76;45.48;101478.95;2082186;85;28714;-62
2022/04/29 06:19:08;;;;;;;11.67;5.63;;;;;;;19.30;45.16;101481.30;2082227;85;31146;-62
2022/04/29 06:22:11;;;;;;;7.92;5.10;;;;;;;19.88;43.66;101480.52;2082158;85;33528;-63
2022/04/29 06:25:14;;;;;;;7.22;5.40;;;;;;;20.37;42.75;101481.22;2081823;85;29684;-61
2022/04/29 06:28:17;;;;;;;8.35;4.95;;;;;;;20.47;42.91;101479.09;2082521;85;28194;-61
2022/04/29 06:31:20;;;;;;;7.47;4.22;;;;;;;20.85;42.42;101477.77;2082290;85;29665;-64
2022/04/29 06:34:22;;;;;;;7.97;4.67;;;;;;;21.25;41.26;101474.27;2049378;86;31932;-65
2022/04/29 06:37:27;;;;;;;5.78;4.20;;;;;;;21.69;39.53;101483.24;2082055;85;33961;-58
2022/04/29 06:40:31;;;;;;;6.40;3.92;;;;;;;22.09;39.44;101477.34;2082272;85;29678;-62
2022/04/29 06:43:34;;;;;;;5.87;4.60;;;;;;;22.48;38.10;101475.67;2082058;85;37156;-60
2022/04/29 06:46:39;;;;;;;6.22;4.45;;;;;;;22.76;37.96;101482.44;2082054;85;28728;-61
2022/04/29 06:49:55;;;;;;;;;;;;;;;23.18;37.63;101484.95;2084183;85;31038;-65
2022/04/29 06:52:55;;;;;;;7.92;5.05;;;;;;;23.49;36.91;101481.00;2070229;86;29730;-61
2022/04/29 06:55:58;;;;;;;6.22;4.47;;;;;;;23.73;36.59;101478.52;2070353;86;29291;-62
2022/04/29 06:59:02;;;;;;;9.10;4.58;;;;;;;24.02;36.59;101473.76;2068620;85;27866;-71
2022/04/29 07:02:05;;;;;;;9.33;5.37;;;;;;;24.18;34.32;101479.61;2044194;87;28892;-73
2022/04/29 07:05:09;;;;;;;7.20;5.00;;;;;;;24.18;34.32;101479.61;2043888;87;32372;-66
2022/04/29 07:08:13;;;;;;;5.45;4.45;;;;;;;24.38;34.50;101487.40;2044723;87;32982;-67
2022/04/29 07:11:15;;;;;;;5.70;4.40;;;;;;;24.62;34.61;101479.84;2044659;87;29670;-74
2022/04/29 07:14:18;;;;;;;6.28;4.12;;;;;;;24.82;33.39;101483.55;2044003;87;27773;-64
2022/04/29 07:17:21;;;;;;;6.53;4.50;;;;;;;24.91;33.38;101487.29;2044371;87;29876;-75
2022/04/29 07:20:22;;;;;;;7.33;4.72;;;;;;;25.04;33.00;101483.80;2043877;87;32311;-62
2022/04/29 07:23:24;;;;;;;11.05;4.67;;;;;;;25.15;31.70;101487.77;2043750;87;34202;-65
2022/04/29 07:26:26;;;;;;;5.65;4.45;;;;;;;25.30;32.04;101489.60;2044181;87;29776;-66
2022/04/29 07:29:28;;;;;;;8.18;4.30;;;;;;;25.12;30.45;101488.05;2044015;87;27929;-62
2022/04/29 07:32:31;;;;;;;6.10;4.20;;;;;;;24.93;30.53;101492.13;2044140;87;29878;-62
2022/04/29 07:42:14;;;;;;;5.47;3.80;;;;;;;25.07;29.86;101492.23;2044001;87;30914;-68
2022/04/29 07:45:16;;;;;;;6.10;4.92;;;;;;;25.05;28.75;101488.28;2043921;87;27769;-62
2022/04/29 07:48:23;;;;;;;10.00;5.50;;;;;;;24.77;29.17;101485.32;2043953;87;29105;-61
2022/04/29 07:51:26;;;;;;;6.95;4.70;;;;;;;24.67;29.46;101491.25;2044053;87;30868;-60
2022/04/29 07:54:28;;;;;;;6.80;4.92;;;;;;;24.71;28.59;101484.53;2043798;87;33689;-63
2022/04/29 07:57:31;;;;;;;5.45;4.92;;;;;;;24.50;28.22;101490.91;2043809;87;30848;-62
2022/04/29 08:00:33;;;;;;;7.67;4.42;;;;;;;24.21;28.56;101489.41;2055933;86;27803;-62
2022/04/29 08:03:37;;;;;;;6.92;4.70;;;;;;;24.18;27.60;101491.92;2070448;86;29530;-62
2022/04/29 08:06:40;;;;;;;6.17;4.05;;;;;;;23.92;28.29;101492.82;2070650;86;31053;-61
2022/04/29 08:09:42;;;;;;;5.33;4.25;;;;;;;23.73;27.71;101495.80;2070190;86;33775;-60
2022/04/29 08:12:45;;;;;;;8.93;4.90;;;;;;;23.50;26.42;101495.05;2070513;86;29655;-62
2022/04/29 08:15:50;;;;;;;6.35;4.72;;;;;;;23.20;27.23;101496.63;2070784;85;28349;-69
2022/04/29 08:18:52;;;;;;;9.93;4.53;;;;;;;22.97;28.96;101487.64;2070726;86;29677;-71
2022/04/29 08:21:55;;;;;;;5.65;4.90;;;;;;;23.02;28.68;101485.36;2053269;85;31840;-64
2022/04/29 08:24:58;;;;;;;16.48;7.78;;;;;;;23.13;28.94;101489.45;2081682;85;33784;-68
2022/04/29 08:28:01;;;;;;;6.70;5.05;;;;;;;23.31;29.53;101483.45;2081968;85;30359;-61
2022/04/29 08:31:04;;;;;;;9.30;5.87;;;;;;;23.59;29.65;101479.71;2082351;85;27794;-72
2022/04/29 08:34:10;;;;;;;6.67;5.15;;;;;;;23.72;29.20;101480.89;2082178;85;29855;-60
2022/04/29 08:37:11;;;;;;;6.20;5.22;;;;;;;23.81;29.23;101480.95;2081898;85;31039;-61
2022/04/29 08:40:14;;;;;;;5.25;4.67;;;;;;;24.03;29.44;101467.28;2082273;85;32947;-62
2022/04/29 08:43:19;;;;;;;7.33;4.62;;;;;;;24.14;28.97;101468.55;2082255;85;30462;-61
2022/04/29 08:46:21;;;;;;;8.20;5.10;;;;;;;24.14;28.94;101464.45;2082152;85;27749;-59
2022/04/29 08:49:26;;;;;;;9.28;4.50;;;;;;;24.14;29.12;101468.55;2059010;85;28662;-59
2022/04/29 08:52:29;;;;;;;9.30;4.75;;;;;;;24.12;28.67;101462.34;2082287;85;31674;-62
2022/04/29 08:58:54;;;;;;;4.70;4.22;;;;;;;23.78;28.71;101466.66;2082332;85;30026;-62
2022/04/29 09:01:56;;;;;;;7.25;4.95;;;;;;;23.59;28.98;101460.56;2087971;83;27681;-62
2022/04/29 09:04:59;;;;;;;8.55;5.17;;;;;;;23.39;28.62;101463.66;2089341;85;29492;-60
2022/04/29 09:08:04;;;;;;;8.00;5.25;;;;;;;23.12;28.80;101458.13;2089470;84;31070;-61
2022/04/29 09:11:08;;;;;;;13.93;4.92;;;;;;;22.97;28.92;101461.67;2091934;85;32981;-64
2022/04/29 09:14:24;;;;;;;7.97;5.15;;;;;;;22.88;29.23;101455.97;2091948;85;29696;-63
2022/04/29 09:17:41;;;;;;;7.87;4.25;;;;;;;22.70;28.37;101461.59;2092123;84;27593;-62
2022/04/29 09:20:47;;;;;;;8.65;4.92;;;;;;;22.46;29.15;101453.08;2089815;84;27703;-61
2022/04/29 09:23:57;;;;;;;7.85;5.20;;;;;;;22.35;29.16;101444.36;2118650;83;31107;-61
2022/04/29 09:27:03;;;;;;;5.90;4.22;;;;;;;22.20;29.24;101445.10;2091952;84;33646;-61
2022/04/29 09:30:08;;;;;;;10.75;5.47;;;;;;;21.93;28.96;101446.34;2091528;83;30341;-70
2022/04/29 09:33:24;;;;;;;8.30;4.95;;;;;;;21.65;29.40;101444.45;2092119;84;27695;-59
2022/04/29 09:36:28;;;;;;;11.12;5.08;;;;;;;21.43;29.50;101438.88;2091930;85;28749;-65
2022/04/29 09:39:30;;;;;;;10.13;4.47;;;;;;;21.27;29.86;101439.19;2092002;84;32227;-67
2022/04/29 09:42:43;;;;;;;9.70;4.75;;;;;;;21.08;29.30;101435.17;2091998;85;33116;-62
2022/04/29 09:45:46;;;;;;;10.70;5.40;;;;;;;20.67;30.07;101427.75;2092066;84;29811;-59
2022/04/29 09:49:06;;;;;;;8.03;5.22;;;;;;;20.59;30.56;101431.04;2092467;84;27867;-59
2022/04/29 09:52:09;;;;;;;11.20;5.92;;;;;;;20.55;30.59;101424.08;2091741;85;28452;-64
2022/04/29 09:55:15;;;;;;;7.03;5.12;;;;;;;20.52;31.18;101423.44;2091962;84;31844;-61
2022/04/29 09:58:18;;;;;;;8.48;4.75;;;;;;;20.51;31.00;101424.42;2091963;85;34025;-62
2022/04/29 10:01:20;;;;;;;8.43;4.22;;;;;;;20.44;30.24;101416.70;2084862;84;30499;-60
2022/04/29 10:04:23;;;;;;;6.80;4.37;;;;;;;20.33;31.50;101415.27;2078902;85;27731;-62
2022/04/29 10:07:26;;;;;;;8.00;4.90;;;;;;;20.44;31.70;101406.28;2078460;85;29595;-60
2022/04/29 10:10:30;;;;;;;12.15;4.85;;;;;;;20.48;31.35;101414.14;2078797;85;31608;-62
2022/04/29 10:13:32;;;;;;;;;;;;;;;20.44;31.50;101418.53;2081259;85;33756;-63
2022/04/29 10:16:37;;;;;;;6.20;4.53;;;;;;;20.37;31.01;101413.18;2078518;85;29682;-65
2022/04/29 10:23:10;;;;;;;4.40;3.80;;;;;;;20.12;31.77;101414.95;2078442;85;30010;-61
2022/04/29 10:26:12;;;;;;;5.10;3.65;;;;;;;20.20;31.86;101413.92;2053341;85;31291;-62
2022/04/29 10:29:15;;;;;;;9.33;5.05;;;;;;;20.26;31.81;101411.23;2078690;85;33740;-60
2022/04/29 10:32:17;;;;;;;4.78;3.70;;;;;;;20.31;31.69;101408.55;2078679;85;29796;-65
2022/04/29 10:35:43;;;;;;;5.83;3.77;;;;;;;20.41;32.20;101405.17;2078682;85;27712;-66
2022/04/29 10:38:47;;;;;;;5.05;3.17;;;;;;;20.42;31.87;101400.11;2079019;85;29895;-64
2022/04/29 10:42:08;;;;;;;6.85;4.30;;;;;;;20.32;31.76;101410.30;2078700;85;32314;-62
2022/04/29 10:45:11;;;;;;;8.18;4.70;;;;;;;20.17;31.87;101395.98;2079050;85;32930;-63
2022/04/29 10:48:32;;;;;;;6.08;3.70;;;;;;;20.10;32.01;101393.81;2078900;85;29649;-64
2022/04/29 10:51:47;;;;;;;4.10;3.30;;;;;;;20.01;31.69;101403.01;2068989;85;27682;-63
2022/04/29 10:54:56;;;;;;;6.62;3.50;;;;;;;19.73;31.29;101399.52;2078899;85;29559;-66
2022/04/29 10:58:09;;;;;;;5.12;3.40;;;;;;;19.52;31.80;101393.76;2078968;85;31027;-61
2022/04/29 11:01:27;;;;;;;8.05;4.22;;;;;;;19.49;32.50;101389.89;2073637;83;34266;-67
2022/04/29 11:04:38;;;;;;;5.12;3.42;;;;;;;19.52;32.36;101391.04;2073449;85;30859;-61
2022/04/29 11:07:46;;;;;;;7.05;3.95;;;;;;;19.57;32.83;101388.84;2073731;85;27708;-62
2022/04/29 11:10:57;;;;;;;7.30;3.90;;;;;;;19.70;32.58;101387.50;2073223;85;28720;-61
2022/04/29 11:14:01;;;;;;;6.30;3.98;;;;;;;19.73;32.51;101389.12;2073566;85;31888;-65
2022/04/29 11:17:14;;;;;;;4.83;3.40;;;;;;;19.76;32.30;101388.05;2073610;85;32951;-64
2022/04/29 11:20:23;;;;;;;7.42;3.10;;;;;;;19.67;31.79;101382.27;2073667;85;30801;-62
2022/04/29 11:26:52;;;;;;;8.63;3.70;;;;;;;19.74;32.33;101379.98;2073309;85;29867;-62
2022/04/29 11:30:02;;;;;;;6.95;2.90;;;;;;;19.91;32.97;101362.98;2073558;85;30456;-63
2022/04/29 11:33:03;;;;;;;5.28;3.35;;;;;;;19.95;32.64;101368.58;2073006;85;34183;-60
2022/04/29 11:36:13;;;;;;;11.50;4.12;;;;;;;19.93;32.73;101366.46;2073578;85;30719;-72
2022/04/29 11:39:18;;;;;;;3.40;3.10;;;;;;;19.85;32.27;101373.78;2073338;85;27707;-60
2022/04/29 11:42:21;;;;;;;5.08;3.35;;;;;;;19.74;32.55;101366.39;2073843;85;29324;-63
2022/04/29 11:45:28;;;;;;;5.50;3.15;;;;;;;19.69;31.67;101358.57;2073099;85;31907;-67
2022/04/29 11:48:31;;;;;;;5.50;3.70;;;;;;;19.62;32.52;101364.05;2073531;85;32976;-59
2022/04/29 11:51:35;;;;;;;4.60;3.10;;;;;;;19.57;32.34;101360.30;2073234;85;30348;-60
2022/04/29 11:54:54;;;;;;;4.22;3.47;;;;;;;19.57;32.58;101354.02;2073714;85;27741;-72
2022/04/29 11:57:58;;;;;;;5.12;3.40;;;;;;;19.59;32.58;101354.78;2073162;85;28704;-64
2022/04/29 12:01:01;;;;;;;4.85;3.10;;;;;;;19.42;32.33;101349.16;2074463;85;31860;-59
2022/04/29 12:04:05;;;;;;;6.50;3.37;;;;;;;19.25;32.71;101340.34;2078369;85;33034;-60
2022/04/29 12:07:10;;;;;;;4.33;3.27;;;;;;;19.13;32.06;101339.84;2078977;85;30504;-60
2022/04/29 12:10:30;;;;;;;6.65;3.45;;;;;;;18.97;32.76;101344.98;2078756;85;27763;-59
2022/04/29 12:13:31;;;;;;;5.45;3.85;;;;;;;18.95;33.15;101337.42;2077984;85;27834;-61
2022/04/29 12:16:36;;;;;;;8.18;3.80;;;;;;;18.98;33.17;101341.30;2049709;86;31063;-61
2022/04/29 12:19:39;;;;;;;;;;;;;;;18.95;32.79;101330.63;1992287;88;33497;-61
2022/04/29 12:22:44;;;;;;;5.62;3.17;;;;;;;18.85;33.03;101332.22;2014549;88;29705;-59
2022/04/29 12:25:49;;;;;;;6.83;2.47;;;;;;;18.72;32.47;101328.57;2057358;85;27765;-60
2022/04/29 12:28:58;;;;;;;6.80;2.92;;;;;;;18.62;32.43;101319.70;2082290;85;28652;-60
2022/04/29 12:35:33;;;;;;;5.72;3.30;;;;;;;18.50;32.75;101315.97;2081862;85;34406;-58
2022/04/29 12:38:38;;;;;;;6.33;3.30;;;;;;;18.45;32.93;101315.39;2058918;85;29652;-60
2022/04/29 12:41:41;;;;;;;8.88;3.58;;;;;;;18.30;32.35;101298.78;2082331;85;28114;-60
2022/04/29 12:45:06;;;;;;;6.45;2.77;;;;;;;18.18;33.23;101301.34;2082054;85;29509;-59
2022/04/29 12:48:16;;;;;;;4.83;2.55;;;;;;;18.16;33.55;101290.23;2082214;85;31914;-59
2022/04/29 12:51:32;;;;;;;3.65;3.05;;;;;;;18.12;32.83;101292.75;2080162;85;33845;-59
2022/04/29 12:54:34;;;;;;;5.75;2.62;;;;;;;18.06;33.27;101289.95;2014065;88;29696;-59
2022/04/29 12:57:37;;;;;;;5.28;2.98;;;;;;;18.03;33.21;101280.19;2013884;88;27796;-59
2022/04/29 13:00:44;;;;;;;5.08;3.10;;;;;;;17.99;32.93;101290.84;2013364;88;29927;-58
2022/04/29 13:03:54;;;;;;;5.85;3.65;;;;;;;17.92;32.88;101279.97;2001819;87;31880;-59
2022/04/29 13:06:59;;;;;;;4.00;3.22;;;;;;;17.87;32.90;101284.84;2002522;88;33831;-61
2022/04/29 13:10:04;;;;;;;4.22;2.72;;;;;;;17.79;32.87;101277.17;2002269;88;30364;-61
2022/04/29 13:13:06;;;;;;;7.25;3.55;;;;;;;17.74;32.91;101265.78;2002459;88;27742;-59
2022/04/29 13:16:08;;;;;;;5.60;3.70;;;;;;;17.74;33.24;101261.22;2002540;88;29552;-61
2022/04/29 13:19:13;;;;;;;5.30;3.60;;;;;;;17.69;33.02;101257.06;2002672;88;32001;-61
2022/04/29 13:22:15;;;;;;;4.25;3.27;;;;;;;17.71;33.23;101259.20;2002086;88;34116;-59
2022/04/29 13:25:18;;;;;;;4.10;3.30;;;;;;;17.80;33.72;101252.31;2002038;88;30874;-60
2022/04/29 13:28:20;;;;;;;6.00;4.10;;;;;;;17.90;33.88;101249.38;2002301;88;27777;-65
2022/04/29 13:31:25;;;;;;;6.80;2.67;;;;;;;17.93;32.88;101247.83;2041784;86;29538;-59
2022/04/29 13:34:27;;;;;;;7.35;2.83;;;;;;;17.94;32.41;101243.29;2012083;87;31866;-59
2022/04/29 13:37:35;;;;;;;8.00;2.52;;;;;;;17.88;32.01;101241.82;2012090;88;34191;-60
2022/04/29 13:40:34;;;;;;;4.87;2.65;;;;;;;17.90;32.36;101242.12;2064936;84;30055;-58
2022/04/29 13:43:36;;;;;;;6.20;2.80;;;;;;;17.88;31.97;101241.35;2011941;88;27707;-58
2022/04/29 13:46:38;;;;;;;4.50;2.80;;;;;;;17.81;31.15;101240.50;2064531;86;29052;-60
2022/04/29 13:49:41;;;;;;;4.50;2.37;;;;;;;17.70;31.83;101235.30;2011827;88;31768;-58
2022/04/29 13:56:05;;;;;;;3.30;2.33;;;;;;;17.66;31.79;101241.00;2011954;88;30825;-57
2022/04/29 13:59:07;;;;;;;3.20;2.25;;;;;;;17.52;31.39;101240.55;2064263;86;27562;-59
2022/04/29 14:02:10;;;;;;;4.75;2.25;;;;;;;17.44;30.99;101237.83;2013897;87;29131;-59
2022/04/29 14:05:13;;;;;;;5.45;1.95;;;;;;;17.36;31.54;101237.47;2053146;86;31092;-71
2022/04/29 14:08:15;;;;;;;4.42;2.60;;;;;;;17.36;32.07;101236.58;2085642;85;33371;-64
2022/04/29 14:11:18;;;;;;;2.77;2.15;;;;;;;17.29;31.71;101234.75;2085665;85;29263;-62
2022/04/29 14:14:20;;;;;;;5.10;2.22;;;;;;;17.21;31.55;101228.46;2085534;85;28226;-60
2022/04/29 14:17:23;;;;;;;4.37;2.37;;;;;;;17.16;31.68;101230.11;2085544;85;29916;-59
2022/04/29 14:20:26;;;;;;;2.83;2.45;;;;;;;17.11;31.81;101232.72;2085743;85;31874;-59
2022/04/29 14:23:28;;;;;;;8.40;2.60;;;;;;;17.03;31.80;101226.89;2085910;85;32976;-59
2022/04/29 14:26:31;;;;;;;3.90;2.62;;;;;;;16.96;31.92;101230.47;2085554;85;30341;-60
2022/04/29 14:29:35;;;;;;;4.72;2.80;;;;;;;16.91;32.06;101225.31;2085586;85;27931;-60
2022/04/29 14:32:40;;;;;;;6.60;2.13;;;;;;;16.88;31.90;101224.64;2086126;85;28609;-60
2022/04/29 14:35:43;;;;;;;7.45;2.55;;;;;;;16.81;31.92;101221.41;2086011;85;32075;-60
2022/04/29 14:38:48;;;;;;;3.75;2.22;;;;;;;16.71;30.82;101227.89;2085530;85;33811;-60